Pagina principală
METAR-TAF:

METAR-TAF

Aeroporturi :

San Jose de Chiquitos, Bolivia

Latitudine: 17-48S, longitudine: 060-44W, elevație: 284 m

Observații meteo curente

Raportul a fost făcut în urmă cu 7 ore și 22 de minute, la 22:00 UTC
Vânt calm
Temperatură 31°C
Umiditate 66%
Presiune 1012 hPa
Vizibilitate de 10 km sau mai mult
Nori împrăștiați la o înălțime de 2000 picior

METAR: SLJE 242200Z 00000KT 9999 SCT020 31/24 Q1012

Ora: 01:22 (05:22 UTC)


TAF: lipsă

Observații și prognoze meteo pentru peste 4.000 de aeroporturi (rapoarte METAR și TAF).

Stațiile disponibile sunt reprezentate pe hartă prin puncte galbene și roșii.

Țineți indicatorul mouse-ului pe punctul dorit pentru a vedea denumirea stației.

Apoi, faceți clic pentru a vedea observațiile și prognozele meteorologice.

Pentru a schimba harta: Pentru mărire, faceți clic pe butoanele verzi cu cruce neagră; pentru micșorare, pe butonul verde cu o liniuță; pentru hărți învecinate, pe săgețile verzi.


METAR-TAF: